Форум клана ЧПУшников

Информация о пользователе

Привет, Гость! Войдите или зарегистрируйтесь.


Вы здесь » Форум клана ЧПУшников » Лазерные станки


Лазерные станки

Тем 321 страница 400 из 473

Тема Ответов Просмотров Последнее сообщение
207 17970 12-06-2016 11:02:33  Andrey55
4 234 06-06-2016 09:19:33  Zmeei
24 909 02-06-2016 16:29:32  Sofka
16 383 02-06-2016 09:43:13  ilcomp
3 148 31-05-2016 11:04:49  SmileCat
14 470 29-05-2016 10:38:37  Neudrums
19 935 28-05-2016 00:03:48  Sborka
19 240 25-05-2016 12:15:46  Mikky
8 407 24-05-2016 15:31:24  sonr
21 2256 23-05-2016 23:42:46  Avel
331 Волнистый рез  angrydemon
4 233 23-05-2016 17:44:30  YuSTas
2 124 05-05-2016 11:02:05  Kuz
7 434 04-05-2016 01:16:19  snowman
10 323 28-04-2016 20:21:01  Kirian
1 150 28-04-2016 19:58:34  Kirian
37 1103 28-04-2016 14:14:04  neotex
3 601 27-04-2016 20:39:04  andrey_e
6 286 27-04-2016 16:16:09  denisej
339 Reci s2  Neudrums
35 893 26-04-2016 21:17:31  Элинка
5 474 25-04-2016 16:52:18  MPN
15 1353 23-04-2016 22:53:06  Sokrat
9 532 23-04-2016 17:45:11  Tab
35 1035 23-04-2016 13:05:00  Valera5609
20 737 21-04-2016 12:48:47  Silmaril
18 1031 21-04-2016 12:07:58  f.laser
1 168 17-04-2016 23:10:04  megagad
347 Резка с углекислотой  Виктор Краски
23 733 17-04-2016 08:59:55  Flint2015
13 1860 15-04-2016 11:34:20  ImageLaser
11 292 11-04-2016 14:35:21  MaxMaster
13 380 09-04-2016 20:30:46  aldushin
5 276 06-04-2016 17:28:09  daguss
992 94399 29-03-2016 17:50:18  sva-don
353 Закрыта Резко упала мощность  Neudrums
10 328 24-03-2016 00:59:57  Neudrums
5 427 22-03-2016 20:12:39  Дилик
19 1848 16-03-2016 23:19:45  Falcor
356 Прошу помощи.  Назар
5 308 16-03-2016 09:51:09  Назар
8 238 14-03-2016 16:51:53  Расулыч
7 412 10-03-2016 20:36:59  chirik
5 742 07-03-2016 20:32:32  Flint2015
19 1712 04-03-2016 17:27:39  Airside
4 194 29-02-2016 22:43:44  nikson
5 174 27-02-2016 08:50:26  Flint2015
363 Тестирование размера реза  Виктор Краски
9 473 26-02-2016 16:55:55  daguss
364 кривая резка  Восходник
17 489 26-02-2016 00:06:30  semerochka
80 5891 22-02-2016 20:51:36  Kinetic
17 933 22-02-2016 12:02:26  Kinetic
5 582 14-02-2016 15:24:59  gabber
7 403 14-02-2016 12:43:54  Zippo
12 378 12-02-2016 17:15:38  Yaroslavl
2 207 12-02-2016 10:23:44  Администратор
22 881 07-02-2016 15:27:40  Imobile
6 321 28-01-2016 17:09:21  StarPOM
25 958 26-01-2016 15:23:58  Zippo
16 680 15-01-2016 04:57:58  Tauhuh
3 238 07-01-2016 00:45:42  okruk
4 242 05-01-2016 10:25:43  markaru
377 Нужна помощь специалистов!  Мастер на все руки
30 1267 02-01-2016 20:05:38  racon75
7 205 24-12-2015 12:08:34  lexus80
22 2408 21-12-2015 14:22:31  Kuz
14 367 14-12-2015 15:59:50  YuSTas
8 332 12-12-2015 20:20:10  Shamankiller
15 573 12-12-2015 18:02:39  racon75
38 915 08-12-2015 23:46:50  asor
35 896 08-12-2015 18:35:57  dm6
8 359 07-12-2015 21:25:28  Dimon
25 906 04-12-2015 21:36:10  Silmaril
387 Лазерный станок Kamach II 1280 AS  радион рашитович
4 235 04-12-2015 20:36:20  Airside
4 301 04-12-2015 10:56:16  Drakonstar
9 631 29-11-2015 02:45:00  Лазорез
38 801 27-11-2015 18:12:36  ЫХ-000
41 1387 27-11-2015 12:34:06  Slym
44 1852 22-11-2015 11:50:31  _king_
393 mpc6525 - завис  Dr_dober
2 246 16-11-2015 12:54:39  Dr_dober
30 2203 09-11-2015 16:17:15  bort747
1 209 07-11-2015 14:48:03  MobileMan
396 Гравивовка на iPhone  Максим1975
9 598 28-10-2015 12:02:57  Восходник
44 1112 25-10-2015 16:54:39  tok17
3 241 25-10-2015 11:20:20  Фёдор Соколов
12 640 24-10-2015 11:53:29  yri71
21 1820 21-10-2015 23:59:06  dmitrymi

Вы здесь » Форум клана ЧПУшников » Лазерные станки